Time;durP1;ratioP1;P1;durP2;ratioP2;P2;SDS_P1;SDS_P2;PMS_P1;PMS_P2;Temp;Humidity;BMP_temperature;BMP_pressure;BME280_temperature;BME280_humidity;BME280_pressure;Samples;Min_cycle;Max_cycle;Signal;HPM_P1;HPM_P2
2022/07/25 00:00:41;;;;;;;3.70;1.98;;;;;;;;;;5054566;28;20067;-79
2022/07/25 00:03:09;;;;;;;1.92;1.23;;;;;;;;;;5056864;28;20282;-77
2022/07/25 00:05:37;;;;;;;2.28;1.10;;;;;;;;;;5056068;28;20072;-78
2022/07/25 00:08:02;;;;;;;1.25;0.80;;;;;;;;;;5056137;28;20024;-78
2022/07/25 00:10:31;;;;;;;1.52;1.08;;;;;;;;;;5053487;28;20032;-79
2022/07/25 00:12:56;;;;;;;1.88;1.30;;;;;;;;;;5057407;28;20028;-78
2022/07/25 00:15:24;;;;;;;2.10;1.45;;;;;;;;;;5051230;28;20033;-78
2022/07/25 00:17:52;;;;;;;2.83;1.90;;;;;;;;;;5056629;28;20458;-77
2022/07/25 00:20:17;;;;;;;2.30;1.60;;;;;;;;;;5050506;28;20033;-77
2022/07/25 00:22:45;;;;;;;1.20;0.70;;;;;;;;;;5055409;28;20418;-78
2022/07/25 00:25:10;;;;;;;1.75;1.05;;;;;;;;;;5055315;28;20059;-79
2022/07/25 00:27:36;;;;;;;2.10;1.48;;;;;;;;;;5056699;28;20025;-77
2022/07/25 00:30:03;;;;;;;1.42;1.17;;;;;;;;;;5052112;28;20037;-80
2022/07/25 00:32:28;;;;;;;0.93;0.93;;;;;;;;;;5056075;28;20024;-82
2022/07/25 00:34:56;;;;;;;2.40;1.35;;;;;;;;;;5054384;28;20044;-81
2022/07/25 00:37:21;;;;;;;2.03;1.83;;;;;;;;;;5055261;28;20021;-81
2022/07/25 00:39:47;;;;;;;1.15;0.98;;;;;;;;;;5054766;28;20031;-79
2022/07/25 00:42:14;;;;;;;2.92;1.92;;;;;;;;;;5055345;28;20513;-80
2022/07/25 00:44:40;;;;;;;1.70;1.40;;;;;;;;;;5058841;28;20039;-80
2022/07/25 00:47:05;;;;;;;1.63;1.30;;;;;;;;;;5055788;28;20037;-79
2022/07/25 00:49:31;;;;;;;2.15;1.35;;;;;;;;;;5055017;28;20442;-80
2022/07/25 00:51:56;;;;;;;2.03;1.13;;;;;;;;;;5055249;28;20040;-80
2022/07/25 00:54:22;;;;;;;1.75;1.30;;;;;;;;;;5051613;28;20037;-79
2022/07/25 00:56:48;;;;;;;1.17;0.95;;;;;;;;;;5034678;28;20104;-80
2022/07/25 00:59:16;;;;;;;1.45;1.33;;;;;;;;;;5054734;28;20032;-77
2022/07/25 01:01:44;;;;;;;1.50;1.25;;;;;;;;;;5053768;28;20029;-77
2022/07/25 01:04:10;;;;;;;1.85;1.50;;;;;;;;;;5053960;28;20063;-77
2022/07/25 01:06:37;;;;;;;1.67;1.27;;;;;;;;;;5037924;28;20512;-77
2022/07/25 01:09:03;;;;;;;1.85;1.15;;;;;;;;;;5054603;28;20029;-78
2022/07/25 01:11:31;;;;;;;1.45;0.93;;;;;;;;;;5054066;28;20036;-78
2022/07/25 01:13:56;;;;;;;1.33;0.93;;;;;;;;;;5055664;28;20111;-77
2022/07/25 01:16:21;;;;;;;1.27;0.85;;;;;;;;;;5052695;28;20442;-77
2022/07/25 01:18:47;;;;;;;1.67;1.00;;;;;;;;;;5054394;28;20591;-78
2022/07/25 01:21:13;;;;;;;1.77;1.38;;;;;;;;;;5051450;28;20017;-78
2022/07/25 01:23:41;;;;;;;2.20;1.40;;;;;;;;;;5055607;28;20025;-77
2022/07/25 01:26:06;;;;;;;1.95;1.52;;;;;;;;;;5050313;28;20062;-78
2022/07/25 01:28:31;;;;;;;2.22;1.30;;;;;;;;;;5044807;28;20024;-77
2022/07/25 01:30:57;;;;;;;2.72;1.70;;;;;;;;;;5054509;28;20064;-77
2022/07/25 01:33:24;;;;;;;2.92;1.45;;;;;;;;;;5050373;28;20555;-78
2022/07/25 01:35:52;;;;;;;1.80;0.88;;;;;;;;;;5053431;28;20442;-76
2022/07/25 01:38:17;;;;;;;1.17;0.73;;;;;;;;;;5054562;28;20120;-78
2022/07/25 01:40:45;;;;;;;1.13;0.85;;;;;;;;;;5053713;28;20017;-78
2022/07/25 01:43:13;;;;;;;2.53;1.33;;;;;;;;;;5053222;28;20060;-78
2022/07/25 01:45:41;;;;;;;1.50;1.25;;;;;;;;;;5052803;28;20021;-77
2022/07/25 01:48:07;;;;;;;1.88;1.20;;;;;;;;;;5055130;28;20033;-79
2022/07/25 01:50:32;;;;;;;1.63;1.52;;;;;;;;;;5053978;28;20025;-79
2022/07/25 01:52:57;;;;;;;1.88;1.45;;;;;;;;;;5053043;28;20056;-79
2022/07/25 01:55:25;;;;;;;1.45;1.05;;;;;;;;;;5051292;28;20029;-80
2022/07/25 01:57:50;;;;;;;1.40;1.13;;;;;;;;;;5054436;28;20153;-80
2022/07/25 02:00:21;;;;;;;3.63;1.38;;;;;;;;;;5052530;28;20103;-80
2022/07/25 02:03:28;;;;;;;3.53;1.38;;;;;;;;;;5053666;28;20025;-80
2022/07/25 02:05:34;;;;;;;1.98;1.42;;;;;;;;;;5053513;28;20108;-80
2022/07/25 02:07:59;;;;;;;2.53;1.67;;;;;;;;;;5053368;28;20112;-80
2022/07/25 02:10:24;;;;;;;1.70;0.90;;;;;;;;;;5053395;28;20100;-79
2022/07/25 02:12:50;;;;;;;1.90;1.13;;;;;;;;;;5054373;28;20044;-78
2022/07/25 02:15:15;;;;;;;2.13;1.52;;;;;;;;;;5056176;28;20067;-79
2022/07/25 02:17:43;;;;;;;2.25;1.27;;;;;;;;;;5054674;28;20048;-80
2022/07/25 02:20:09;;;;;;;2.67;1.00;;;;;;;;;;5052964;28;20358;-78
2022/07/25 02:22:34;;;;;;;3.50;1.98;;;;;;;;;;5052657;28;20025;-79
2022/07/25 02:25:00;;;;;;;4.78;1.95;;;;;;;;;;5052293;28;20029;-78
2022/07/25 02:27:25;;;;;;;1.83;1.10;;;;;;;;;;5048026;28;20047;-79
2022/07/25 02:29:50;;;;;;;3.83;1.27;;;;;;;;;;5053663;28;20025;-78
2022/07/25 02:32:18;;;;;;;2.17;1.30;;;;;;;;;;5054381;28;20060;-79
2022/07/25 02:34:44;;;;;;;1.20;1.10;;;;;;;;;;5051869;28;20118;-80
2022/07/25 02:37:09;;;;;;;1.60;1.50;;;;;;;;;;5053706;28;20565;-80
2022/07/25 02:39:37;;;;;;;1.13;1.00;;;;;;;;;;5050022;28;20039;-80
2022/07/25 02:42:02;;;;;;;2.85;1.98;;;;;;;;;;5053157;28;20043;-80
2022/07/25 02:44:27;;;;;;;3.55;1.58;;;;;;;;;;5056092;28;20051;-80
2022/07/25 02:46:57;;;;;;;1.70;1.45;;;;;;;;;;5050044;28;20028;-80
2022/07/25 02:49:23;;;;;;;1.67;1.58;;;;;;;;;;5049032;28;20033;-80
2022/07/25 02:51:48;;;;;;;1.35;1.08;;;;;;;;;;5053731;28;20024;-79
2022/07/25 02:54:14;;;;;;;2.03;1.27;;;;;;;;;;5050227;28;20024;-80
2022/07/25 02:56:39;;;;;;;1.35;1.25;;;;;;;;;;5052238;28;20020;-80
2022/07/25 02:59:04;;;;;;;1.75;1.27;;;;;;;;;;5052192;28;20029;-79
2022/07/25 03:01:30;;;;;;;2.45;1.73;;;;;;;;;;5048376;28;20051;-78
2022/07/25 03:03:57;;;;;;;2.50;1.30;;;;;;;;;;5062452;28;20048;-78
2022/07/25 03:06:23;;;;;;;2.13;1.52;;;;;;;;;;5052003;28;20036;-78
2022/07/25 03:08:50;;;;;;;2.88;1.58;;;;;;;;;;5052745;28;20487;-78
2022/07/25 03:11:16;;;;;;;2.50;1.63;;;;;;;;;;5050292;28;20476;-77
2022/07/25 03:13:41;;;;;;;2.17;1.20;;;;;;;;;;5053634;28;20025;-78
2022/07/25 03:16:08;;;;;;;1.35;1.25;;;;;;;;;;5048512;28;20021;-78
2022/07/25 03:18:33;;;;;;;2.00;1.20;;;;;;;;;;5053266;28;20108;-78
2022/07/25 03:20:59;;;;;;;3.13;1.55;;;;;;;;;;5052833;28;20159;-78
2022/07/25 03:23:27;;;;;;;2.17;1.67;;;;;;;;;;5048716;28;20060;-78
2022/07/25 03:25:53;;;;;;;2.30;1.55;;;;;;;;;;5051866;28;20024;-78
2022/07/25 03:28:18;;;;;;;2.15;1.52;;;;;;;;;;5053033;28;20070;-77
2022/07/25 03:30:44;;;;;;;1.55;1.40;;;;;;;;;;5045820;28;20378;-77
2022/07/25 03:33:11;;;;;;;1.38;0.93;;;;;;;;;;5052152;28;20123;-80
2022/07/25 03:35:37;;;;;;;2.50;1.42;;;;;;;;;;5053187;28;20052;-80
2022/07/25 03:38:04;;;;;;;1.38;1.05;;;;;;;;;;5053509;28;20059;-79
2022/07/25 03:40:30;;;;;;;1.38;1.13;;;;;;;;;;5053644;28;20017;-78
2022/07/25 03:42:56;;;;;;;1.10;1.00;;;;;;;;;;5048836;28;20104;-79
2022/07/25 03:45:21;;;;;;;2.45;1.70;;;;;;;;;;5051433;28;20104;-78
2022/07/25 03:47:50;;;;;;;1.70;1.13;;;;;;;;;;5052527;28;20036;-78
2022/07/25 03:50:18;;;;;;;2.53;1.35;;;;;;;;;;5053338;28;20033;-79
2022/07/25 03:52:44;;;;;;;2.97;1.00;;;;;;;;;;5053836;28;20029;-80
2022/07/25 03:55:10;;;;;;;1.92;1.30;;;;;;;;;;5051279;28;20028;-80
2022/07/25 03:57:37;;;;;;;1.10;1.00;;;;;;;;;;5052741;28;20056;-81
2022/07/25 04:00:07;;;;;;;1.65;1.35;;;;;;;;;;5050961;28;20612;-82
2022/07/25 04:02:33;;;;;;;1.60;1.00;;;;;;;;;;5046649;28;20033;-79
2022/07/25 04:05:01;;;;;;;1.90;1.42;;;;;;;;;;5052050;28;20341;-79
2022/07/25 04:07:28;;;;;;;2.13;1.73;;;;;;;;;;5053800;28;20459;-79
2022/07/25 04:09:54;;;;;;;1.38;1.23;;;;;;;;;;5052218;28;20032;-80
2022/07/25 04:12:22;;;;;;;2.47;1.58;;;;;;;;;;5053567;28;20082;-79
2022/07/25 04:14:47;;;;;;;1.63;1.33;;;;;;;;;;5054094;28;20091;-78
2022/07/25 04:17:12;;;;;;;3.28;1.27;;;;;;;;;;5051367;28;20029;-78
2022/07/25 04:19:38;;;;;;;2.05;1.45;;;;;;;;;;5045179;28;20083;-78
2022/07/25 04:22:03;;;;;;;4.95;1.42;;;;;;;;;;5053572;28;20024;-80
2022/07/25 04:24:33;;;;;;;1.63;1.23;;;;;;;;;;5049485;28;20521;-78
2022/07/25 04:26:59;;;;;;;1.23;1.00;;;;;;;;;;5044111;28;20033;-79
2022/07/25 04:29:25;;;;;;;1.75;1.35;;;;;;;;;;5052935;28;20036;-78
2022/07/25 04:31:50;;;;;;;1.48;1.05;;;;;;;;;;5052233;28;20067;-80
2022/07/25 04:34:16;;;;;;;2.63;1.58;;;;;;;;;;5056770;28;20665;-80
2022/07/25 04:36:41;;;;;;;2.00;1.20;;;;;;;;;;5056475;28;20454;-80
2022/07/25 04:39:10;;;;;;;2.30;1.25;;;;;;;;;;5054973;28;20114;-81
2022/07/25 04:41:35;;;;;;;2.97;1.63;;;;;;;;;;5049474;28;20473;-79
2022/07/25 04:44:01;;;;;;;1.95;1.23;;;;;;;;;;5055218;28;20028;-80
2022/07/25 04:46:26;;;;;;;1.88;1.08;;;;;;;;;;5053576;28;20469;-80
2022/07/25 04:48:54;;;;;;;4.65;1.42;;;;;;;;;;5051031;28;20028;-80
2022/07/25 04:51:19;;;;;;;3.30;1.95;;;;;;;;;;5056161;28;20029;-80
2022/07/25 04:53:45;;;;;;;1.88;1.42;;;;;;;;;;5055375;28;20150;-81
2022/07/25 04:56:10;;;;;;;2.03;1.40;;;;;;;;;;5053786;28;20044;-82
2022/07/25 04:58:36;;;;;;;2.28;1.10;;;;;;;;;;5056873;28;20037;-81
2022/07/25 05:01:01;;;;;;;1.75;1.20;;;;;;;;;;5057107;28;20040;-81
2022/07/25 05:03:26;;;;;;;2.60;0.98;;;;;;;;;;5060058;28;20111;-81
2022/07/25 05:05:52;;;;;;;1.35;1.20;;;;;;;;;;5055600;28;20021;-81
2022/07/25 05:08:17;;;;;;;1.83;1.20;;;;;;;;;;5052914;28;20036;-83
2022/07/25 05:10:42;;;;;;;1.83;1.50;;;;;;;;;;5046144;28;20072;-82
2022/07/25 05:13:08;;;;;;;1.27;1.15;;;;;;;;;;5049526;28;20032;-82
2022/07/25 05:15:34;;;;;;;4.65;1.40;;;;;;;;;;5054170;28;20021;-81
2022/07/25 05:17:59;;;;;;;1.92;1.55;;;;;;;;;;5049935;28;20106;-76
2022/07/25 05:20:26;;;;;;;3.60;1.35;;;;;;;;;;5048653;28;20045;-81
2022/07/25 05:22:52;;;;;;;2.05;1.58;;;;;;;;;;5055166;28;20024;-80
2022/07/25 05:25:29;;;;;;;1.92;1.35;;;;;;;;;;5053290;28;20350;-83
2022/07/25 05:27:57;;;;;;;1.10;1.00;;;;;;;;;;5047471;28;20542;-80
2022/07/25 05:30:25;;;;;;;1.45;1.30;;;;;;;;;;5053165;28;20025;-80
2022/07/25 05:32:50;;;;;;;2.97;2.05;;;;;;;;;;5054995;28;20032;-78
2022/07/25 05:35:16;;;;;;;1.40;1.23;;;;;;;;;;5053315;28;20355;-79
2022/07/25 05:37:43;;;;;;;1.35;1.20;;;;;;;;;;5055127;28;20075;-80
2022/07/25 05:40:09;;;;;;;1.83;1.15;;;;;;;;;;5052311;28;20025;-79
2022/07/25 05:42:34;;;;;;;1.45;1.27;;;;;;;;;;5037198;28;20363;-80
2022/07/25 05:45:02;;;;;;;1.38;1.27;;;;;;;;;;5060892;28;20040;-80
2022/07/25 05:47:30;;;;;;;2.78;2.10;;;;;;;;;;5048777;28;20458;-81
2022/07/25 05:49:56;;;;;;;1.50;1.20;;;;;;;;;;5054389;28;20107;-79
2022/07/25 05:52:21;;;;;;;2.38;1.95;;;;;;;;;;5050104;28;20024;-78
2022/07/25 05:54:47;;;;;;;3.60;1.85;;;;;;;;;;5037538;28;20093;-79
2022/07/25 05:57:14;;;;;;;1.77;1.17;;;;;;;;;;5054416;28;20060;-80
2022/07/25 05:59:40;;;;;;;1.52;1.23;;;;;;;;;;5054860;28;20458;-79
2022/07/25 06:02:07;;;;;;;1.67;1.15;;;;;;;;;;5055061;28;20293;-78
2022/07/25 06:04:32;;;;;;;0.88;0.57;;;;;;;;;;5069467;28;20029;-79
2022/07/25 06:06:57;;;;;;;1.52;1.30;;;;;;;;;;5055313;28;20440;-79
2022/07/25 06:09:23;;;;;;;2.45;1.20;;;;;;;;;;5054885;28;20090;-79
2022/07/25 06:11:53;;;;;;;1.92;1.17;;;;;;;;;;5055394;28;20033;-79
2022/07/25 06:14:23;;;;;;;3.17;2.25;;;;;;;;;;5054391;28;20048;-79
2022/07/25 06:16:49;;;;;;;2.35;1.30;;;;;;;;;;5052765;28;20098;-79
2022/07/25 06:19:14;;;;;;;1.95;1.35;;;;;;;;;;5049778;28;20393;-78
2022/07/25 06:21:44;;;;;;;2.53;1.58;;;;;;;;;;5055017;28;20024;-77
2022/07/25 06:24:12;;;;;;;2.03;1.33;;;;;;;;;;5053287;28;20033;-78
2022/07/25 06:26:37;;;;;;;4.32;1.13;;;;;;;;;;5054363;28;20035;-78
2022/07/25 06:29:05;;;;;;;2.60;1.25;;;;;;;;;;5053148;28;20369;-77
2022/07/25 06:31:31;;;;;;;2.90;1.27;;;;;;;;;;5049445;28;20362;-79
2022/07/25 06:33:56;;;;;;;6.20;1.25;;;;;;;;;;5053122;28;20036;-78
2022/07/25 06:36:24;;;;;;;3.45;2.10;;;;;;;;;;5054211;28;20024;-78
2022/07/25 06:38:49;;;;;;;1.88;1.30;;;;;;;;;;5054020;28;20036;-78
2022/07/25 06:41:17;;;;;;;2.70;1.27;;;;;;;;;;5054644;28;20017;-77
2022/07/25 06:43:42;;;;;;;2.03;1.75;;;;;;;;;;5052712;28;20029;-79
2022/07/25 06:46:10;;;;;;;1.75;1.10;;;;;;;;;;5052285;28;20035;-78
2022/07/25 06:48:35;;;;;;;2.38;1.48;;;;;;;;;;5054147;28;20029;-78
2022/07/25 06:51:03;;;;;;;1.85;1.45;;;;;;;;;;5054364;28;20036;-79
2022/07/25 06:53:28;;;;;;;2.22;1.50;;;;;;;;;;5050371;28;20048;-78
2022/07/25 06:55:54;;;;;;;2.42;1.30;;;;;;;;;;5052857;28;20075;-77
2022/07/25 06:58:23;;;;;;;1.88;1.08;;;;;;;;;;5051887;28;20060;-77
2022/07/25 07:00:49;;;;;;;1.00;0.85;;;;;;;;;;5048897;28;20464;-78
2022/07/25 07:03:16;;;;;;;2.20;1.88;;;;;;;;;;5054230;28;20021;-77
2022/07/25 07:05:42;;;;;;;3.08;1.67;;;;;;;;;;5052295;28;20031;-75
2022/07/25 07:08:07;;;;;;;2.22;1.25;;;;;;;;;;5052846;28;20020;-78
2022/07/25 07:10:33;;;;;;;1.52;1.13;;;;;;;;;;5054048;28;20086;-76
2022/07/25 07:13:09;;;;;;;2.08;1.25;;;;;;;;;;5050399;28;20021;-76
2022/07/25 07:15:38;;;;;;;2.45;1.65;;;;;;;;;;5058772;28;20021;-76
2022/07/25 07:18:07;;;;;;;1.23;0.82;;;;;;;;;;5054349;28;20025;-75
2022/07/25 07:20:32;;;;;;;1.38;1.00;;;;;;;;;;5052440;28;20025;-78
2022/07/25 07:23:00;;;;;;;1.40;0.98;;;;;;;;;;5069196;28;20396;-76
2022/07/25 07:25:25;;;;;;;2.03;1.45;;;;;;;;;;5052046;28;20147;-76
2022/07/25 07:27:56;;;;;;;1.55;1.30;;;;;;;;;;5047850;28;20057;-76
2022/07/25 07:30:21;;;;;;;2.13;1.67;;;;;;;;;;5053491;28;20336;-80
2022/07/25 07:32:46;;;;;;;1.20;1.00;;;;;;;;;;5052886;28;20166;-77
2022/07/25 07:35:32;;;;;;;2.85;1.13;;;;;;;;;;5053114;28;20029;-78
2022/07/25 07:38:00;;;;;;;1.45;1.25;;;;;;;;;;4950726;29;20141;-77
2022/07/25 07:40:28;;;;;;;1.58;1.40;;;;;;;;;;4949244;29;20071;-77
2022/07/25 07:43:01;;;;;;;2.10;1.33;;;;;;;;;;4947789;29;20044;-77
2022/07/25 07:45:31;;;;;;;1.42;1.30;;;;;;;;;;4951802;28;20041;-77
2022/07/25 07:48:01;;;;;;;3.83;2.13;;;;;;;;;;4954054;29;20027;-77
2022/07/25 07:50:27;;;;;;;1.90;1.25;;;;;;;;;;4954022;29;20118;-78
2022/07/25 07:52:57;;;;;;;1.88;1.40;;;;;;;;;;4953502;29;20106;-77
2022/07/25 07:55:42;;;;;;;2.17;1.35;;;;;;;;;;4951977;29;20087;-78
2022/07/25 07:58:10;;;;;;;1.55;1.30;;;;;;;;;;4951497;29;20094;-78
2022/07/25 08:00:38;;;;;;;1.75;1.42;;;;;;;;;;4951380;28;20038;-79
2022/07/25 08:03:05;;;;;;;3.53;1.38;;;;;;;;;;4952352;29;20130;-82
2022/07/25 08:05:40;;;;;;;1.65;1.55;;;;;;;;;;4952884;28;20027;-79
2022/07/25 08:08:07;;;;;;;2.25;1.80;;;;;;;;;;4956509;29;20042;-79
2022/07/25 08:10:35;;;;;;;1.83;1.30;;;;;;;;;;4957373;29;20027;-79
2022/07/25 08:13:02;;;;;;;2.45;1.70;;;;;;;;;;4957478;29;20113;-77
2022/07/25 08:15:33;;;;;;;1.70;1.20;;;;;;;;;;5026515;28;20106;-78
2022/07/25 08:18:03;;;;;;;;;;;;;;;;;;5056433;28;20472;-79
2022/07/25 08:20:29;;;;;;;1.35;0.88;;;;;;;;;;5057358;28;19934;-83
2022/07/25 08:22:57;;;;;;;2.17;1.20;;;;;;;;;;5055992;28;20040;-80
2022/07/25 08:25:27;;;;;;;3.58;1.60;;;;;;;;;;5051569;28;20021;-77
2022/07/25 08:27:52;;;;;;;1.70;1.20;;;;;;;;;;5033476;28;20017;-79
2022/07/25 08:30:18;;;;;;;1.75;1.63;;;;;;;;;;5053575;28;20021;-77
2022/07/25 08:32:46;;;;;;;2.22;1.58;;;;;;;;;;5057606;28;20483;-80
2022/07/25 08:35:14;;;;;;;1.65;1.55;;;;;;;;;;5055802;28;20029;-80
2022/07/25 08:37:40;;;;;;;1.05;1.00;;;;;;;;;;5059522;28;20031;-80
2022/07/25 08:40:05;;;;;;;1.60;1.27;;;;;;;;;;5055814;28;20029;-78
2022/07/25 08:42:32;;;;;;;1.98;1.65;;;;;;;;;;5057346;28;20499;-80
2022/07/25 08:45:04;;;;;;;2.45;1.58;;;;;;;;;;5057722;28;20021;-79
2022/07/25 08:47:30;;;;;;;1.75;1.30;;;;;;;;;;5044084;28;20112;-77
2022/07/25 08:49:56;;;;;;;1.67;1.52;;;;;;;;;;5055677;28;20086;-80
2022/07/25 08:52:25;;;;;;;1.73;1.17;;;;;;;;;;5055309;28;20029;-79
2022/07/25 08:54:51;;;;;;;1.65;1.55;;;;;;;;;;5053105;28;20028;-77
2022/07/25 08:57:16;;;;;;;1.33;0.95;;;;;;;;;;5056697;28;20036;-77
2022/07/25 08:59:42;;;;;;;2.00;1.42;;;;;;;;;;5058689;28;20199;-77
2022/07/25 09:02:12;;;;;;;2.47;1.65;;;;;;;;;;5056380;28;20013;-79
2022/07/25 09:04:39;;;;;;;3.60;1.92;;;;;;;;;;5050178;28;20033;-79
2022/07/25 09:07:07;;;;;;;2.60;1.55;;;;;;;;;;5051977;28;20025;-80
2022/07/25 09:09:39;;;;;;;3.53;1.90;;;;;;;;;;5054192;28;20029;-78
2022/07/25 09:12:08;;;;;;;2.42;2.08;;;;;;;;;;5049121;28;20021;-79
2022/07/25 09:14:43;;;;;;;5.60;2.03;;;;;;;;;;5053730;28;20033;-79
2022/07/25 09:17:08;;;;;;;3.00;2.45;;;;;;;;;;5047474;28;20442;-78
2022/07/25 09:19:34;;;;;;;4.20;2.40;;;;;;;;;;5048562;28;20025;-80
2022/07/25 09:22:05;;;;;;;2.80;1.50;;;;;;;;;;5049627;28;20470;-78
2022/07/25 09:24:33;;;;;;;1.95;1.45;;;;;;;;;;5057932;28;20418;-79
2022/07/25 09:27:07;;;;;;;4.15;2.13;;;;;;;;;;5052306;28;20033;-80
2022/07/25 09:29:33;;;;;;;3.13;1.83;;;;;;;;;;5051197;28;20608;-81
2022/07/25 09:32:00;;;;;;;2.53;1.67;;;;;;;;;;5048789;28;20480;-80
2022/07/25 09:34:33;;;;;;;1.60;1.23;;;;;;;;;;5054196;28;20025;-80
2022/07/25 09:37:01;;;;;;;2.97;1.50;;;;;;;;;;5052876;28;20040;-81
2022/07/25 09:39:33;;;;;;;2.33;1.55;;;;;;;;;;5035365;28;20037;-80
2022/07/25 09:42:01;;;;;;;3.58;1.65;;;;;;;;;;5051014;28;20024;-79
2022/07/25 09:44:29;;;;;;;1.95;1.48;;;;;;;;;;5057768;28;20033;-80
2022/07/25 09:46:57;;;;;;;2.03;1.17;;;;;;;;;;5058269;28;20024;-81
2022/07/25 09:49:47;;;;;;;1.92;1.50;;;;;;;;;;5037652;28;20059;-80
2022/07/25 09:52:12;;;;;;;1.83;1.08;;;;;;;;;;5050107;28;20052;-80
2022/07/25 09:54:38;;;;;;;1.23;0.98;;;;;;;;;;5055317;28;20443;-80
2022/07/25 09:57:04;;;;;;;1.65;1.40;;;;;;;;;;5051286;28;20029;-83
2022/07/25 09:59:35;;;;;;;1.65;1.27;;;;;;;;;;5039804;28;20024;-81
2022/07/25 10:02:25;;;;;;;1.57;1.20;;;;;;;;;;5054091;28;20029;-80
2022/07/25 10:05:03;;;;;;;3.30;1.58;;;;;;;;;;5054579;28;20020;-81
2022/07/25 10:07:28;;;;;;;2.63;1.30;;;;;;;;;;5054569;28;20035;-78
2022/07/25 10:10:02;;;;;;;2.28;1.92;;;;;;;;;;5052949;28;20017;-81
2022/07/25 10:12:31;;;;;;;2.63;1.85;;;;;;;;;;5048716;28;20107;-84
2022/07/25 10:15:10;;;;;;;1.20;1.05;;;;;;;;;;5039040;28;20115;-80
2022/07/25 10:17:36;;;;;;;1.77;1.25;;;;;;;;;;5034007;28;20108;-80
2022/07/25 10:20:09;;;;;;;2.80;2.20;;;;;;;;;;5051665;28;20028;-79
2022/07/25 10:22:45;;;;;;;2.83;1.67;;;;;;;;;;5049415;28;20060;-79
2022/07/25 10:25:15;;;;;;;1.77;1.40;;;;;;;;;;5032981;28;20025;-80
2022/07/25 10:27:49;;;;;;;2.17;1.60;;;;;;;;;;5034113;28;20017;-79
2022/07/25 10:30:20;;;;;;;2.80;2.05;;;;;;;;;;5051070;28;20060;-79
2022/07/25 10:32:55;;;;;;;1.55;1.45;;;;;;;;;;5050911;28;20020;-80
2022/07/25 10:35:20;;;;;;;2.08;1.50;;;;;;;;;;5053647;28;20461;-78
2022/07/25 10:37:49;;;;;;;2.58;1.30;;;;;;;;;;5052100;28;20112;-79
2022/07/25 10:40:31;;;;;;;1.65;1.52;;;;;;;;;;5055324;28;20032;-83
2022/07/25 10:43:14;;;;;;;3.50;1.73;;;;;;;;;;5054255;28;20033;-78
2022/07/25 10:45:43;;;;;;;1.90;1.42;;;;;;;;;;5054191;28;20020;-81
2022/07/25 10:48:23;;;;;;;3.08;1.70;;;;;;;;;;5052734;28;20035;-81
2022/07/25 10:51:11;;;;;;;1.63;1.20;;;;;;;;;;5048851;28;20033;-80
2022/07/25 10:53:39;;;;;;;3.15;1.25;;;;;;;;;;5050955;28;20021;-79
2022/07/25 10:56:07;;;;;;;2.45;1.90;;;;;;;;;;5042112;28;20040;-79
2022/07/25 10:59:08;;;;;;;3.13;1.63;;;;;;;;;;5048583;28;20029;-81
2022/07/25 11:01:36;;;;;;;1.67;1.48;;;;;;;;;;5037126;28;20359;-80
2022/07/25 11:04:19;;;;;;;1.13;1.02;;;;;;;;;;5044168;28;20025;-82
2022/07/25 11:06:52;;;;;;;2.42;1.67;;;;;;;;;;5066656;28;20017;-81
2022/07/25 11:09:18;;;;;;;2.80;1.38;;;;;;;;;;5048685;28;20051;-80
2022/07/25 11:11:50;;;;;;;2.08;1.30;;;;;;;;;;5053648;28;20100;-80
2022/07/25 11:14:24;;;;;;;1.90;1.40;;;;;;;;;;5052964;28;20036;-77
2022/07/25 11:17:21;;;;;;;1.92;1.55;;;;;;;;;;5049892;28;20033;-79
2022/07/25 11:20:23;;;;;;;1.65;1.38;;;;;;;;;;5052872;28;20020;-81
2022/07/25 11:22:54;;;;;;;4.72;1.80;;;;;;;;;;5051080;28;20064;-78
2022/07/25 11:25:24;;;;;;;1.35;0.93;;;;;;;;;;5050643;28;20029;-78
2022/07/25 11:27:56;;;;;;;2.50;1.00;;;;;;;;;;5051968;28;20048;-78
2022/07/25 11:30:21;;;;;;;1.15;1.05;;;;;;;;;;5033317;28;20021;-78
2022/07/25 11:32:49;;;;;;;1.35;1.10;;;;;;;;;;5051151;28;20102;-76
2022/07/25 11:35:15;;;;;;;1.38;1.00;;;;;;;;;;5052239;28;20090;-78
2022/07/25 11:37:42;;;;;;;1.77;1.20;;;;;;;;;;5053812;28;20031;-76
2022/07/25 11:40:11;;;;;;;2.22;1.58;;;;;;;;;;5056164;28;20047;-81
2022/07/25 11:42:44;;;;;;;1.50;1.20;;;;;;;;;;5055888;28;20021;-79
2022/07/25 11:45:42;;;;;;;2.28;1.13;;;;;;;;;;5048892;28;20342;-78
2022/07/25 11:48:13;;;;;;;2.38;1.33;;;;;;;;;;5052272;28;20087;-81
2022/07/25 11:50:43;;;;;;;1.40;1.30;;;;;;;;;;5034918;28;20025;-79
2022/07/25 11:53:13;;;;;;;0.93;0.90;;;;;;;;;;5052704;28;20036;-82
2022/07/25 11:55:39;;;;;;;1.70;1.30;;;;;;;;;;5063912;28;20466;-79
2022/07/25 11:58:11;;;;;;;3.30;1.30;;;;;;;;;;5054417;28;20028;-79
2022/07/25 12:00:42;;;;;;;1.33;0.88;;;;;;;;;;5055121;28;20121;-76
2022/07/25 12:03:15;;;;;;;0.70;0.70;;;;;;;;;;5049740;28;20074;-78
2022/07/25 12:05:41;;;;;;;1.75;1.00;;;;;;;;;;5041915;28;20067;-77
2022/07/25 12:08:10;;;;;;;1.00;0.82;;;;;;;;;;5043452;28;20414;-77
2022/07/25 12:10:36;;;;;;;1.63;1.10;;;;;;;;;;5056944;28;20108;-78
2022/07/25 12:13:03;;;;;;;1.42;1.00;;;;;;;;;;5056758;28;20063;-78
2022/07/25 12:15:34;;;;;;;1.17;0.90;;;;;;;;;;5053527;28;20116;-77
2022/07/25 12:18:00;;;;;;;3.45;1.42;;;;;;;;;;5056849;28;20028;-78
2022/07/25 12:20:31;;;;;;;0.43;0.43;;;;;;;;;;5057304;28;20031;-78
2022/07/25 12:22:59;;;;;;;1.40;1.10;;;;;;;;;;5055666;28;20025;-79
2022/07/25 12:25:30;;;;;;;1.90;1.10;;;;;;;;;;5039819;28;20116;-78
2022/07/25 12:28:00;;;;;;;2.97;1.10;;;;;;;;;;5056392;28;20028;-79
2022/07/25 12:30:30;;;;;;;1.00;0.88;;;;;;;;;;5055331;28;20033;-78
2022/07/25 12:32:57;;;;;;;2.40;1.10;;;;;;;;;;5057075;28;20036;-79
2022/07/25 12:35:24;;;;;;;2.13;1.20;;;;;;;;;;5055592;28;20473;-78
2022/07/25 12:37:52;;;;;;;2.75;1.05;;;;;;;;;;5057034;28;20451;-78
2022/07/25 12:40:18;;;;;;;2.22;0.88;;;;;;;;;;5056244;28;20068;-78
2022/07/25 12:42:43;;;;;;;1.90;1.27;;;;;;;;;;5049614;28;20076;-79
2022/07/25 12:45:10;;;;;;;1.27;0.98;;;;;;;;;;5059575;28;20028;-78
2022/07/25 12:47:36;;;;;;;2.55;1.08;;;;;;;;;;5057110;28;20322;-78
2022/07/25 12:50:04;;;;;;;1.33;1.05;;;;;;;;;;5056922;28;20037;-78
2022/07/25 12:52:32;;;;;;;1.60;0.70;;;;;;;;;;5056017;28;20025;-78
2022/07/25 12:54:58;;;;;;;1.02;0.63;;;;;;;;;;5056625;28;20033;-80
2022/07/25 12:57:23;;;;;;;1.48;1.05;;;;;;;;;;5055701;28;20029;-79
2022/07/25 12:59:52;;;;;;;1.13;0.85;;;;;;;;;;5055496;28;20063;-80
2022/07/25 13:02:17;;;;;;;1.15;0.85;;;;;;;;;;5051487;28;20031;-79
2022/07/25 13:04:43;;;;;;;2.88;0.68;;;;;;;;;;5055075;28;20024;-80
2022/07/25 13:07:08;;;;;;;1.23;0.93;;;;;;;;;;5058094;28;20082;-82
2022/07/25 13:09:34;;;;;;;1.27;1.02;;;;;;;;;;5054848;28;20037;-79
2022/07/25 13:12:01;;;;;;;2.20;1.30;;;;;;;;;;5032313;28;20028;-79
2022/07/25 13:14:31;;;;;;;2.75;1.38;;;;;;;;;;5055215;28;20037;-76
2022/07/25 13:16:57;;;;;;;0.52;0.50;;;;;;;;;;5044200;28;20065;-77
2022/07/25 13:19:22;;;;;;;2.00;1.02;;;;;;;;;;5056207;28;20064;-78
2022/07/25 13:21:47;;;;;;;1.13;0.82;;;;;;;;;;5046143;28;20120;-78
2022/07/25 13:24:13;;;;;;;0.93;0.50;;;;;;;;;;5054999;28;20526;-77
2022/07/25 13:26:38;;;;;;;1.77;1.08;;;;;;;;;;5054921;28;20510;-79
2022/07/25 13:29:10;;;;;;;2.28;0.85;;;;;;;;;;5056399;28;20090;-81
2022/07/25 13:31:39;;;;;;;0.75;0.63;;;;;;;;;;5056511;28;20056;-79
2022/07/25 13:34:06;;;;;;;1.90;0.95;;;;;;;;;;5049760;28;20029;-79
2022/07/25 13:36:33;;;;;;;1.45;1.00;;;;;;;;;;5059326;28;20086;-79
2022/07/25 13:38:58;;;;;;;0.93;0.80;;;;;;;;;;5050838;28;20039;-79
2022/07/25 13:41:23;;;;;;;2.05;1.10;;;;;;;;;;5050632;28;20021;-79
2022/07/25 13:43:49;;;;;;;5.82;0.88;;;;;;;;;;5054600;28;20094;-79
2022/07/25 13:46:16;;;;;;;1.45;0.70;;;;;;;;;;5042604;28;20465;-78
2022/07/25 13:48:44;;;;;;;0.73;0.73;;;;;;;;;;5047499;28;20427;-80
2022/07/25 13:51:12;;;;;;;1.15;0.95;;;;;;;;;;5050825;28;20374;-80
2022/07/25 13:53:40;;;;;;;2.53;1.42;;;;;;;;;;5054286;28;20028;-79
2022/07/25 13:56:06;;;;;;;3.38;1.10;;;;;;;;;;5055684;28;20029;-80
2022/07/25 13:58:31;;;;;;;2.58;1.20;;;;;;;;;;5054833;28;20024;-80
2022/07/25 14:00:56;;;;;;;1.08;0.90;;;;;;;;;;5054739;28;20029;-76
2022/07/25 14:03:22;;;;;;;1.17;1.00;;;;;;;;;;5053943;28;20100;-79
2022/07/25 14:05:47;;;;;;;1.55;1.17;;;;;;;;;;5037123;28;20017;-80
2022/07/25 14:08:13;;;;;;;1.70;1.23;;;;;;;;;;5053448;28;20028;-79
2022/07/25 14:10:43;;;;;;;0.80;0.70;;;;;;;;;;5054283;28;20090;-79
2022/07/25 14:13:11;;;;;;;0.70;0.70;;;;;;;;;;5054428;28;20028;-79
2022/07/25 14:15:39;;;;;;;1.35;0.90;;;;;;;;;;5061640;28;20107;-80
2022/07/25 14:18:08;;;;;;;1.40;1.00;;;;;;;;;;5037915;28;20025;-80
2022/07/25 14:20:38;;;;;;;0.50;0.50;;;;;;;;;;5054860;28;20017;-79
2022/07/25 14:23:06;;;;;;;0.50;0.50;;;;;;;;;;5055629;28;20102;-80
2022/07/25 14:25:32;;;;;;;1.73;0.85;;;;;;;;;;5054521;28;20044;-79
2022/07/25 14:27:58;;;;;;;0.57;0.57;;;;;;;;;;5053026;28;20406;-79
2022/07/25 14:30:26;;;;;;;3.58;1.42;;;;;;;;;;5052541;28;20502;-79
2022/07/25 14:32:54;;;;;;;1.38;1.27;;;;;;;;;;5053375;28;20103;-78
2022/07/25 14:35:20;;;;;;;0.60;0.60;;;;;;;;;;5052920;28;20032;-78
2022/07/25 14:37:46;;;;;;;0.88;0.50;;;;;;;;;;5049005;28;20111;-79
2022/07/25 14:40:12;;;;;;;1.15;0.60;;;;;;;;;;5053884;28;20024;-77
2022/07/25 14:42:39;;;;;;;0.77;0.52;;;;;;;;;;5054993;28;20021;-79
2022/07/25 14:45:07;;;;;;;1.02;0.77;;;;;;;;;;5056653;28;20036;-79
2022/07/25 14:47:33;;;;;;;0.50;0.50;;;;;;;;;;5054337;28;20024;-78